sensor_id;sensor_type;location;lat;lon;timestamp;P1;durP1;ratioP1;P2;durP2;ratioP2
21297;SDS011;10808;48.010;11.326;2022-07-23T00:02:11;10.75;;;9.75;;
21297;SDS011;10808;48.010;11.326;2022-07-23T00:04:37;10.30;;;9.30;;
21297;SDS011;10808;48.010;11.326;2022-07-23T00:07:03;10.88;;;9.68;;
21297;SDS011;10808;48.010;11.326;2022-07-23T00:09:29;10.18;;;9.15;;
21297;SDS011;10808;48.010;11.326;2022-07-23T00:11:56;10.88;;;9.77;;
21297;SDS011;10808;48.010;11.326;2022-07-23T00:14:22;10.50;;;9.07;;
21297;SDS011;10808;48.010;11.326;2022-07-23T00:16:48;10.40;;;9.10;;
21297;SDS011;10808;48.010;11.326;2022-07-23T00:19:15;11.48;;;9.55;;
21297;SDS011;10808;48.010;11.326;2022-07-23T00:21:41;11.73;;;9.05;;
21297;SDS011;10808;48.010;11.326;2022-07-23T00:24:07;10.98;;;9.23;;
21297;SDS011;10808;48.010;11.326;2022-07-23T00:26:33;10.88;;;9.05;;
21297;SDS011;10808;48.010;11.326;2022-07-23T00:28:59;10.35;;;8.98;;
21297;SDS011;10808;48.010;11.326;2022-07-23T00:31:25;10.75;;;9.15;;
21297;SDS011;10808;48.010;11.326;2022-07-23T00:33:52;10.50;;;8.98;;
21297;SDS011;10808;48.010;11.326;2022-07-23T00:36:22;9.88;;;8.88;;
21297;SDS011;10808;48.010;11.326;2022-07-23T00:38:49;10.40;;;9.30;;
21297;SDS011;10808;48.010;11.326;2022-07-23T00:41:15;10.43;;;9.02;;
21297;SDS011;10808;48.010;11.326;2022-07-23T00:43:42;9.75;;;8.75;;
21297;SDS011;10808;48.010;11.326;2022-07-23T00:46:08;9.75;;;8.73;;
21297;SDS011;10808;48.010;11.326;2022-07-23T00:48:34;10.70;;;9.00;;
21297;SDS011;10808;48.010;11.326;2022-07-23T00:51:00;10.43;;;8.75;;
21297;SDS011;10808;48.010;11.326;2022-07-23T00:53:26;10.32;;;9.00;;
21297;SDS011;10808;48.010;11.326;2022-07-23T00:55:52;9.75;;;8.75;;
21297;SDS011;10808;48.010;11.326;2022-07-23T00:58:19;10.20;;;9.10;;
21297;SDS011;10808;48.010;11.326;2022-07-23T01:00:45;10.07;;;8.70;;
21297;SDS011;10808;48.010;11.326;2022-07-23T01:03:11;10.32;;;9.32;;
21297;SDS011;10808;48.010;11.326;2022-07-23T01:05:37;12.45;;;10.63;;
21297;SDS011;10808;48.010;11.326;2022-07-23T01:08:05;14.95;;;10.57;;
21297;SDS011;10808;48.010;11.326;2022-07-23T01:10:31;12.52;;;9.57;;
21297;SDS011;10808;48.010;11.326;2022-07-23T01:12:58;15.05;;;9.75;;
21297;SDS011;10808;48.010;11.326;2022-07-23T01:15:25;13.45;;;9.02;;
21297;SDS011;10808;48.010;11.326;2022-07-23T01:17:51;13.52;;;8.32;;
21297;SDS011;10808;48.010;11.326;2022-07-23T01:20:17;15.20;;;8.45;;
21297;SDS011;10808;48.010;11.326;2022-07-23T01:22:44;15.35;;;8.30;;
21297;SDS011;10808;48.010;11.326;2022-07-23T01:25:10;12.68;;;8.60;;
21297;SDS011;10808;48.010;11.326;2022-07-23T01:27:36;10.32;;;8.25;;
21297;SDS011;10808;48.010;11.326;2022-07-23T01:30:03;13.27;;;8.60;;
21297;SDS011;10808;48.010;11.326;2022-07-23T01:32:29;9.93;;;8.50;;
21297;SDS011;10808;48.010;11.326;2022-07-23T01:34:55;12.80;;;9.05;;
21297;SDS011;10808;48.010;11.326;2022-07-23T01:37:21;10.57;;;8.98;;
21297;SDS011;10808;48.010;11.326;2022-07-23T01:39:47;11.98;;;8.60;;
21297;SDS011;10808;48.010;11.326;2022-07-23T01:42:13;8.95;;;8.02;;
21297;SDS011;10808;48.010;11.326;2022-07-23T01:44:39;10.05;;;7.90;;
21297;SDS011;10808;48.010;11.326;2022-07-23T01:47:05;10.10;;;7.82;;
21297;SDS011;10808;48.010;11.326;2022-07-23T01:49:32;9.23;;;7.75;;
21297;SDS011;10808;48.010;11.326;2022-07-23T01:51:58;9.75;;;7.70;;
21297;SDS011;10808;48.010;11.326;2022-07-23T01:54:27;8.60;;;7.70;;
21297;SDS011;10808;48.010;11.326;2022-07-23T01:56:55;10.88;;;8.35;;
21297;SDS011;10808;48.010;11.326;2022-07-23T01:59:21;12.43;;;8.40;;
21297;SDS011;10808;48.010;11.326;2022-07-23T02:01:47;13.45;;;8.55;;
21297;SDS011;10808;48.010;11.326;2022-07-23T02:04:19;10.95;;;8.43;;
21297;SDS011;10808;48.010;11.326;2022-07-23T02:06:46;10.65;;;7.82;;
21297;SDS011;10808;48.010;11.326;2022-07-23T02:09:12;10.53;;;7.73;;
21297;SDS011;10808;48.010;11.326;2022-07-23T02:11:39;8.18;;;7.38;;
21297;SDS011;10808;48.010;11.326;2022-07-23T02:14:05;10.32;;;7.30;;
21297;SDS011;10808;48.010;11.326;2022-07-23T02:16:31;8.32;;;6.72;;
21297;SDS011;10808;48.010;11.326;2022-07-23T02:18:57;6.55;;;5.82;;
21297;SDS011;10808;48.010;11.326;2022-07-23T02:21:23;7.20;;;5.90;;
21297;SDS011;10808;48.010;11.326;2022-07-23T02:23:49;6.65;;;5.90;;
21297;SDS011;10808;48.010;11.326;2022-07-23T02:26:15;8.68;;;6.20;;
21297;SDS011;10808;48.010;11.326;2022-07-23T02:28:41;6.60;;;5.90;;
21297;SDS011;10808;48.010;11.326;2022-07-23T02:31:08;8.83;;;6.30;;
21297;SDS011;10808;48.010;11.326;2022-07-23T02:33:34;6.77;;;6.00;;
21297;SDS011;10808;48.010;11.326;2022-07-23T02:36:00;7.50;;;6.13;;
21297;SDS011;10808;48.010;11.326;2022-07-23T02:38:26;7.37;;;6.03;;
21297;SDS011;10808;48.010;11.326;2022-07-23T02:40:52;5.78;;;5.18;;
21297;SDS011;10808;48.010;11.326;2022-07-23T02:43:18;6.22;;;5.38;;
21297;SDS011;10808;48.010;11.326;2022-07-23T02:45:44;9.90;;;5.37;;
21297;SDS011;10808;48.010;11.326;2022-07-23T02:48:10;6.70;;;5.60;;
21297;SDS011;10808;48.010;11.326;2022-07-23T02:50:38;6.35;;;5.75;;
21297;SDS011;10808;48.010;11.326;2022-07-23T02:53:04;7.77;;;6.03;;
21297;SDS011;10808;48.010;11.326;2022-07-23T02:55:30;5.95;;;5.30;;
21297;SDS011;10808;48.010;11.326;2022-07-23T02:57:57;7.18;;;5.57;;
21297;SDS011;10808;48.010;11.326;2022-07-23T03:00:23;6.85;;;5.72;;
21297;SDS011;10808;48.010;11.326;2022-07-23T03:02:49;6.80;;;5.90;;
21297;SDS011;10808;48.010;11.326;2022-07-23T03:05:15;9.52;;;6.03;;
21297;SDS011;10808;48.010;11.326;2022-07-23T03:07:41;7.65;;;5.80;;
21297;SDS011;10808;48.010;11.326;2022-07-23T03:10:07;7.53;;;6.30;;
21297;SDS011;10808;48.010;11.326;2022-07-23T03:12:33;8.27;;;6.30;;
21297;SDS011;10808;48.010;11.326;2022-07-23T03:14:59;8.00;;;5.78;;
21297;SDS011;10808;48.010;11.326;2022-07-23T03:17:25;7.00;;;6.10;;
21297;SDS011;10808;48.010;11.326;2022-07-23T03:19:51;7.15;;;6.30;;
21297;SDS011;10808;48.010;11.326;2022-07-23T03:22:17;6.75;;;6.05;;
21297;SDS011;10808;48.010;11.326;2022-07-23T03:24:44;7.85;;;6.20;;
21297;SDS011;10808;48.010;11.326;2022-07-23T03:27:25;7.05;;;5.53;;
21297;SDS011;10808;48.010;11.326;2022-07-23T03:29:53;6.68;;;5.97;;
21297;SDS011;10808;48.010;11.326;2022-07-23T03:32:21;8.20;;;5.93;;
21297;SDS011;10808;48.010;11.326;2022-07-23T03:34:48;6.27;;;5.67;;
21297;SDS011;10808;48.010;11.326;2022-07-23T03:37:14;7.22;;;5.78;;
21297;SDS011;10808;48.010;11.326;2022-07-23T03:39:41;6.32;;;5.72;;
21297;SDS011;10808;48.010;11.326;2022-07-23T03:42:07;6.47;;;5.88;;
21297;SDS011;10808;48.010;11.326;2022-07-23T03:44:33;6.15;;;5.55;;
21297;SDS011;10808;48.010;11.326;2022-07-23T03:47:02;5.82;;;5.30;;
21297;SDS011;10808;48.010;11.326;2022-07-23T03:49:29;6.32;;;5.72;;
21297;SDS011;10808;48.010;11.326;2022-07-23T03:51:55;6.35;;;5.30;;
21297;SDS011;10808;48.010;11.326;2022-07-23T03:54:21;6.65;;;5.43;;
21297;SDS011;10808;48.010;11.326;2022-07-23T03:56:47;8.60;;;6.05;;
21297;SDS011;10808;48.010;11.326;2022-07-23T03:59:13;7.22;;;6.20;;
21297;SDS011;10808;48.010;11.326;2022-07-23T04:01:39;7.15;;;6.45;;
21297;SDS011;10808;48.010;11.326;2022-07-23T04:04:05;6.95;;;6.30;;
21297;SDS011;10808;48.010;11.326;2022-07-23T04:06:34;7.28;;;6.57;;
21297;SDS011;10808;48.010;11.326;2022-07-23T04:09:01;7.27;;;6.10;;
21297;SDS011;10808;48.010;11.326;2022-07-23T04:11:28;8.30;;;6.40;;
21297;SDS011;10808;48.010;11.326;2022-07-23T04:13:54;7.22;;;6.53;;
21297;SDS011;10808;48.010;11.326;2022-07-23T04:16:20;7.45;;;6.10;;
21297;SDS011;10808;48.010;11.326;2022-07-23T04:18:46;9.35;;;6.30;;
21297;SDS011;10808;48.010;11.326;2022-07-23T04:21:12;6.85;;;6.20;;
21297;SDS011;10808;48.010;11.326;2022-07-23T04:23:38;7.40;;;6.18;;
21297;SDS011;10808;48.010;11.326;2022-07-23T04:26:04;7.37;;;6.23;;
21297;SDS011;10808;48.010;11.326;2022-07-23T04:28:30;7.22;;;6.53;;
21297;SDS011;10808;48.010;11.326;2022-07-23T04:30:56;7.15;;;6.22;;
21297;SDS011;10808;48.010;11.326;2022-07-23T04:33:23;7.10;;;6.40;;
21297;SDS011;10808;48.010;11.326;2022-07-23T04:35:49;7.10;;;6.30;;
21297;SDS011;10808;48.010;11.326;2022-07-23T04:38:15;7.00;;;6.18;;
21297;SDS011;10808;48.010;11.326;2022-07-23T04:40:41;6.88;;;6.18;;
21297;SDS011;10808;48.010;11.326;2022-07-23T04:43:07;7.05;;;6.35;;
21297;SDS011;10808;48.010;11.326;2022-07-23T04:45:33;6.88;;;5.90;;
21297;SDS011;10808;48.010;11.326;2022-07-23T04:47:59;7.05;;;6.35;;
21297;SDS011;10808;48.010;11.326;2022-07-23T04:50:25;6.90;;;6.20;;
21297;SDS011;10808;48.010;11.326;2022-07-23T04:52:51;7.78;;;6.70;;
21297;SDS011;10808;48.010;11.326;2022-07-23T04:55:17;7.45;;;6.72;;
21297;SDS011;10808;48.010;11.326;2022-07-23T04:57:43;6.72;;;6.10;;
21297;SDS011;10808;48.010;11.326;2022-07-23T05:00:10;6.65;;;5.93;;
21297;SDS011;10808;48.010;11.326;2022-07-23T05:02:36;6.70;;;6.10;;
21297;SDS011;10808;48.010;11.326;2022-07-23T05:05:02;6.90;;;6.20;;
21297;SDS011;10808;48.010;11.326;2022-07-23T05:07:29;8.60;;;6.32;;
21297;SDS011;10808;48.010;11.326;2022-07-23T05:09:55;7.60;;;6.70;;
21297;SDS011;10808;48.010;11.326;2022-07-23T05:12:21;8.07;;;6.50;;
21297;SDS011;10808;48.010;11.326;2022-07-23T05:14:47;7.78;;;6.53;;
21297;SDS011;10808;48.010;11.326;2022-07-23T05:17:13;8.02;;;6.78;;
21297;SDS011;10808;48.010;11.326;2022-07-23T05:19:39;7.78;;;6.60;;
21297;SDS011;10808;48.010;11.326;2022-07-23T05:22:05;7.65;;;6.57;;
21297;SDS011;10808;48.010;11.326;2022-07-23T05:24:31;9.43;;;6.57;;
21297;SDS011;10808;48.010;11.326;2022-07-23T05:26:57;7.35;;;6.05;;
21297;SDS011;10808;48.010;11.326;2022-07-23T05:29:23;7.03;;;6.32;;
21297;SDS011;10808;48.010;11.326;2022-07-23T05:31:49;6.90;;;6.20;;
21297;SDS011;10808;48.010;11.326;2022-07-23T05:34:17;7.70;;;6.50;;
21297;SDS011;10808;48.010;11.326;2022-07-23T05:36:43;7.50;;;6.63;;
21297;SDS011;10808;48.010;11.326;2022-07-23T05:39:09;7.90;;;7.20;;
21297;SDS011;10808;48.010;11.326;2022-07-23T05:41:35;8.32;;;7.07;;
21297;SDS011;10808;48.010;11.326;2022-07-23T05:44:01;8.83;;;7.67;;
21297;SDS011;10808;48.010;11.326;2022-07-23T05:46:27;8.10;;;7.20;;
21297;SDS011;10808;48.010;11.326;2022-07-23T05:48:53;8.43;;;7.20;;
21297;SDS011;10808;48.010;11.326;2022-07-23T05:51:22;8.50;;;7.67;;
21297;SDS011;10808;48.010;11.326;2022-07-23T05:53:49;8.73;;;7.50;;
21297;SDS011;10808;48.010;11.326;2022-07-23T05:56:16;8.05;;;7.03;;
21297;SDS011;10808;48.010;11.326;2022-07-23T05:58:42;8.60;;;7.72;;
21297;SDS011;10808;48.010;11.326;2022-07-23T06:01:08;12.70;;;8.53;;
21297;SDS011;10808;48.010;11.326;2022-07-23T06:03:34;9.13;;;8.10;;
21297;SDS011;10808;48.010;11.326;2022-07-23T06:06:01;10.40;;;8.30;;
21297;SDS011;10808;48.010;11.326;2022-07-23T06:08:27;10.60;;;8.50;;
21297;SDS011;10808;48.010;11.326;2022-07-23T06:10:53;9.55;;;7.57;;
21297;SDS011;10808;48.010;11.326;2022-07-23T06:13:19;11.32;;;8.13;;
21297;SDS011;10808;48.010;11.326;2022-07-23T06:15:45;11.70;;;8.27;;
21297;SDS011;10808;48.010;11.326;2022-07-23T06:18:11;8.73;;;7.68;;
21297;SDS011;10808;48.010;11.326;2022-07-23T06:20:37;8.65;;;7.85;;
21297;SDS011;10808;48.010;11.326;2022-07-23T06:23:03;8.60;;;7.70;;
21297;SDS011;10808;48.010;11.326;2022-07-23T06:25:29;9.00;;;8.02;;
21297;SDS011;10808;48.010;11.326;2022-07-23T06:27:55;9.70;;;8.40;;
21297;SDS011;10808;48.010;11.326;2022-07-23T06:30:22;9.17;;;8.17;;
21297;SDS011;10808;48.010;11.326;2022-07-23T06:32:48;9.17;;;7.87;;
21297;SDS011;10808;48.010;11.326;2022-07-23T06:35:14;8.70;;;7.78;;
21297;SDS011;10808;48.010;11.326;2022-07-23T06:37:41;8.43;;;7.53;;
21297;SDS011;10808;48.010;11.326;2022-07-23T06:40:07;9.43;;;7.80;;
21297;SDS011;10808;48.010;11.326;2022-07-23T06:42:34;8.63;;;7.73;;
21297;SDS011;10808;48.010;11.326;2022-07-23T06:45:05;10.23;;;7.70;;
21297;SDS011;10808;48.010;11.326;2022-07-23T06:47:32;11.30;;;7.88;;
21297;SDS011;10808;48.010;11.326;2022-07-23T06:49:58;8.50;;;7.70;;
21297;SDS011;10808;48.010;11.326;2022-07-23T06:52:24;7.87;;;7.13;;
21297;SDS011;10808;48.010;11.326;2022-07-23T06:54:51;8.35;;;7.45;;
21297;SDS011;10808;48.010;11.326;2022-07-23T06:57:18;9.13;;;7.27;;
21297;SDS011;10808;48.010;11.326;2022-07-23T06:59:44;9.30;;;7.63;;
21297;SDS011;10808;48.010;11.326;2022-07-23T07:02:10;8.97;;;7.80;;
21297;SDS011;10808;48.010;11.326;2022-07-23T07:04:36;10.27;;;7.95;;
21297;SDS011;10808;48.010;11.326;2022-07-23T07:07:02;8.00;;;7.30;;
21297;SDS011;10808;48.010;11.326;2022-07-23T07:09:28;8.55;;;7.65;;
21297;SDS011;10808;48.010;11.326;2022-07-23T07:11:55;8.75;;;7.85;;
21297;SDS011;10808;48.010;11.326;2022-07-23T07:14:22;8.60;;;7.80;;
21297;SDS011;10808;48.010;11.326;2022-07-23T07:16:48;8.90;;;8.00;;
21297;SDS011;10808;48.010;11.326;2022-07-23T07:19:14;8.50;;;7.70;;
21297;SDS011;10808;48.010;11.326;2022-07-23T07:21:40;9.05;;;7.97;;
21297;SDS011;10808;48.010;11.326;2022-07-23T07:24:06;8.77;;;7.80;;
21297;SDS011;10808;48.010;11.326;2022-07-23T07:26:32;9.30;;;7.85;;
21297;SDS011;10808;48.010;11.326;2022-07-23T07:28:58;9.02;;;7.82;;
21297;SDS011;10808;48.010;11.326;2022-07-23T07:31:24;9.50;;;8.10;;
21297;SDS011;10808;48.010;11.326;2022-07-23T07:33:50;9.75;;;7.72;;
21297;SDS011;10808;48.010;11.326;2022-07-23T07:36:16;9.25;;;8.05;;
21297;SDS011;10808;48.010;11.326;2022-07-23T07:38:42;8.85;;;7.90;;
21297;SDS011;10808;48.010;11.326;2022-07-23T07:41:08;8.27;;;7.47;;
21297;SDS011;10808;48.010;11.326;2022-07-23T07:43:36;9.45;;;7.50;;
21297;SDS011;10808;48.010;11.326;2022-07-23T07:46:02;8.35;;;7.43;;
21297;SDS011;10808;48.010;11.326;2022-07-23T07:48:29;8.60;;;7.70;;
21297;SDS011;10808;48.010;11.326;2022-07-23T07:50:55;9.48;;;8.48;;
21297;SDS011;10808;48.010;11.326;2022-07-23T07:53:21;8.60;;;7.70;;
21297;SDS011;10808;48.010;11.326;2022-07-23T07:55:47;9.50;;;8.25;;
21297;SDS011;10808;48.010;11.326;2022-07-23T07:58:13;8.32;;;7.53;;
21297;SDS011;10808;48.010;11.326;2022-07-23T08:00:39;8.10;;;7.13;;
21297;SDS011;10808;48.010;11.326;2022-07-23T08:03:05;9.45;;;7.45;;
21297;SDS011;10808;48.010;11.326;2022-07-23T08:05:31;11.10;;;7.50;;
21297;SDS011;10808;48.010;11.326;2022-07-23T08:07:58;8.07;;;7.10;;
21297;SDS011;10808;48.010;11.326;2022-07-23T08:10:24;8.43;;;7.45;;
21297;SDS011;10808;48.010;11.326;2022-07-23T08:12:53;7.88;;;7.07;;
21297;SDS011;10808;48.010;11.326;2022-07-23T08:15:22;8.02;;;7.22;;
21297;SDS011;10808;48.010;11.326;2022-07-23T08:17:48;8.70;;;7.70;;
21297;SDS011;10808;48.010;11.326;2022-07-23T08:20:16;9.10;;;7.30;;
21297;SDS011;10808;48.010;11.326;2022-07-23T08:22:45;8.80;;;7.57;;
21297;SDS011;10808;48.010;11.326;2022-07-23T08:25:17;8.13;;;7.33;;
21297;SDS011;10808;48.010;11.326;2022-07-23T08:27:55;8.57;;;7.10;;
21297;SDS011;10808;48.010;11.326;2022-07-23T08:30:22;7.82;;;7.03;;
21297;SDS011;10808;48.010;11.326;2022-07-23T08:32:49;7.60;;;6.78;;
21297;SDS011;10808;48.010;11.326;2022-07-23T08:35:16;7.37;;;6.67;;
21297;SDS011;10808;48.010;11.326;2022-07-23T08:37:43;8.75;;;7.25;;
21297;SDS011;10808;48.010;11.326;2022-07-23T08:40:09;7.65;;;6.90;;
21297;SDS011;10808;48.010;11.326;2022-07-23T08:42:36;8.73;;;7.10;;
21297;SDS011;10808;48.010;11.326;2022-07-23T08:45:03;8.25;;;7.07;;
21297;SDS011;10808;48.010;11.326;2022-07-23T08:47:29;8.35;;;7.45;;
21297;SDS011;10808;48.010;11.326;2022-07-23T08:49:56;8.63;;;7.53;;
21297;SDS011;10808;48.010;11.326;2022-07-23T08:52:25;8.52;;;7.72;;
21297;SDS011;10808;48.010;11.326;2022-07-23T08:54:52;8.15;;;7.22;;
21297;SDS011;10808;48.010;11.326;2022-07-23T08:57:19;8.57;;;7.68;;
21297;SDS011;10808;48.010;11.326;2022-07-23T08:59:45;8.10;;;7.30;;
21297;SDS011;10808;48.010;11.326;2022-07-23T09:02:11;10.00;;;7.43;;
21297;SDS011;10808;48.010;11.326;2022-07-23T09:04:37;8.10;;;6.90;;
21297;SDS011;10808;48.010;11.326;2022-07-23T09:07:04;7.35;;;6.65;;
21297;SDS011;10808;48.010;11.326;2022-07-23T09:09:30;7.97;;;7.15;;
21297;SDS011;10808;48.010;11.326;2022-07-23T09:12:07;7.57;;;6.70;;
21297;SDS011;10808;48.010;11.326;2022-07-23T09:14:41;7.40;;;6.70;;
21297;SDS011;10808;48.010;11.326;2022-07-23T09:17:12;7.55;;;6.85;;
21297;SDS011;10808;48.010;11.326;2022-07-23T09:19:43;7.87;;;7.10;;
21297;SDS011;10808;48.010;11.326;2022-07-23T09:25:03;8.35;;;6.70;;
21297;SDS011;10808;48.010;11.326;2022-07-23T09:27:49;8.45;;;6.60;;
21297;SDS011;10808;48.010;11.326;2022-07-23T09:30:15;7.80;;;7.00;;
21297;SDS011;10808;48.010;11.326;2022-07-23T09:32:42;8.35;;;6.85;;
21297;SDS011;10808;48.010;11.326;2022-07-23T09:35:08;10.07;;;7.07;;
21297;SDS011;10808;48.010;11.326;2022-07-23T09:37:34;6.90;;;6.20;;
21297;SDS011;10808;48.010;11.326;2022-07-23T09:40:07;6.65;;;5.95;;
21297;SDS011;10808;48.010;11.326;2022-07-23T09:42:37;7.57;;;6.23;;
21297;SDS011;10808;48.010;11.326;2022-07-23T09:45:03;7.85;;;6.07;;
21297;SDS011;10808;48.010;11.326;2022-07-23T09:47:31;7.57;;;5.63;;
21297;SDS011;10808;48.010;11.326;2022-07-23T09:50:01;6.47;;;5.35;;
21297;SDS011;10808;48.010;11.326;2022-07-23T09:52:32;7.43;;;5.57;;
21297;SDS011;10808;48.010;11.326;2022-07-23T09:55:01;5.97;;;5.35;;
21297;SDS011;10808;48.010;11.326;2022-07-23T09:57:29;6.45;;;5.70;;
21297;SDS011;10808;48.010;11.326;2022-07-23T09:59:58;6.13;;;5.53;;
21297;SDS011;10808;48.010;11.326;2022-07-23T10:02:25;5.93;;;5.32;;
21297;SDS011;10808;48.010;11.326;2022-07-23T10:04:54;8.77;;;5.60;;
21297;SDS011;10808;48.010;11.326;2022-07-23T10:07:23;6.25;;;5.60;;
21297;SDS011;10808;48.010;11.326;2022-07-23T10:09:52;6.38;;;5.60;;
21297;SDS011;10808;48.010;11.326;2022-07-23T10:12:19;5.47;;;4.97;;
21297;SDS011;10808;48.010;11.326;2022-07-23T10:15:06;5.60;;;5.10;;
21297;SDS011;10808;48.010;11.326;2022-07-23T10:17:33;6.63;;;5.50;;
21297;SDS011;10808;48.010;11.326;2022-07-23T10:20:00;5.70;;;5.13;;
21297;SDS011;10808;48.010;11.326;2022-07-23T10:22:28;6.32;;;5.50;;
21297;SDS011;10808;48.010;11.326;2022-07-23T10:25:00;7.50;;;5.22;;
21297;SDS011;10808;48.010;11.326;2022-07-23T10:33:20;6.35;;;5.60;;
21297;SDS011;10808;48.010;11.326;2022-07-23T10:36:11;8.03;;;6.10;;
21297;SDS011;10808;48.010;11.326;2022-07-23T10:38:53;6.10;;;5.45;;
21297;SDS011;10808;48.010;11.326;2022-07-23T10:41:57;6.78;;;5.85;;
21297;SDS011;10808;48.010;11.326;2022-07-23T10:44:17;7.53;;;5.95;;
21297;SDS011;10808;48.010;11.326;2022-07-23T10:47:01;7.15;;;6.35;;
21297;SDS011;10808;48.010;11.326;2022-07-23T10:49:34;8.80;;;6.43;;
21297;SDS011;10808;48.010;11.326;2022-07-23T10:54:51;7.28;;;6.53;;
21297;SDS011;10808;48.010;11.326;2022-07-23T10:57:26;8.38;;;6.47;;
21297;SDS011;10808;48.010;11.326;2022-07-23T11:02:33;9.30;;;6.68;;
21297;SDS011;10808;48.010;11.326;2022-07-23T11:05:04;7.97;;;6.97;;
21297;SDS011;10808;48.010;11.326;2022-07-23T11:07:35;9.45;;;6.75;;
21297;SDS011;10808;48.010;11.326;2022-07-23T11:10:03;8.25;;;6.65;;
21297;SDS011;10808;48.010;11.326;2022-07-23T11:25:12;7.90;;;6.85;;
21297;SDS011;10808;48.010;11.326;2022-07-23T11:28:07;7.68;;;6.25;;
21297;SDS011;10808;48.010;11.326;2022-07-23T11:30:46;8.10;;;6.47;;
21297;SDS011;10808;48.010;11.326;2022-07-23T11:35:40;9.02;;;6.70;;
21297;SDS011;10808;48.010;11.326;2022-07-23T11:38:15;10.63;;;6.60;;
21297;SDS011;10808;48.010;11.326;2022-07-23T11:40:49;7.85;;;6.68;;
21297;SDS011;10808;48.010;11.326;2022-07-23T11:43:20;7.65;;;6.45;;
21297;SDS011;10808;48.010;11.326;2022-07-23T11:45:47;8.00;;;6.95;;
21297;SDS011;10808;48.010;11.326;2022-07-23T11:48:29;7.25;;;6.55;;
21297;SDS011;10808;48.010;11.326;2022-07-23T11:50:56;9.05;;;6.47;;
21297;SDS011;10808;48.010;11.326;2022-07-23T11:53:27;7.70;;;6.72;;
21297;SDS011;10808;48.010;11.326;2022-07-23T11:56:05;7.00;;;6.30;;
21297;SDS011;10808;48.010;11.326;2022-07-23T11:58:32;6.80;;;6.10;;
21297;SDS011;10808;48.010;11.326;2022-07-23T12:00:58;9.48;;;6.60;;
21297;SDS011;10808;48.010;11.326;2022-07-23T12:03:24;6.80;;;5.97;;
21297;SDS011;10808;48.010;11.326;2022-07-23T12:05:55;6.75;;;6.07;;
21297;SDS011;10808;48.010;11.326;2022-07-23T12:08:22;8.20;;;6.13;;
21297;SDS011;10808;48.010;11.326;2022-07-23T12:10:48;8.13;;;6.63;;
21297;SDS011;10808;48.010;11.326;2022-07-23T12:13:15;9.18;;;8.15;;
21297;SDS011;10808;48.010;11.326;2022-07-23T12:15:44;9.00;;;6.60;;
21297;SDS011;10808;48.010;11.326;2022-07-23T12:18:14;7.10;;;6.40;;
21297;SDS011;10808;48.010;11.326;2022-07-23T12:20:52;7.47;;;5.60;;
21297;SDS011;10808;48.010;11.326;2022-07-23T12:23:22;7.15;;;5.90;;
21297;SDS011;10808;48.010;11.326;2022-07-23T12:25:50;9.02;;;6.28;;
21297;SDS011;10808;48.010;11.326;2022-07-23T12:28:28;7.88;;;5.82;;
21297;SDS011;10808;48.010;11.326;2022-07-23T12:30:56;7.10;;;5.90;;
21297;SDS011;10808;48.010;11.326;2022-07-23T12:35:55;6.18;;;5.57;;
21297;SDS011;10808;48.010;11.326;2022-07-23T12:38:23;6.68;;;5.90;;
21297;SDS011;10808;48.010;11.326;2022-07-23T12:43:24;9.60;;;5.73;;
21297;SDS011;10808;48.010;11.326;2022-07-23T12:46:05;7.13;;;5.80;;
21297;SDS011;10808;48.010;11.326;2022-07-23T12:48:33;5.93;;;5.32;;
21297;SDS011;10808;48.010;11.326;2022-07-23T12:51:09;6.25;;;5.22;;
21297;SDS011;10808;48.010;11.326;2022-07-23T12:53:44;7.07;;;5.40;;
21297;SDS011;10808;48.010;11.326;2022-07-23T12:56:14;7.95;;;5.32;;
21297;SDS011;10808;48.010;11.326;2022-07-23T12:58:51;6.28;;;5.68;;
21297;SDS011;10808;48.010;11.326;2022-07-23T13:01:21;7.45;;;5.43;;
21297;SDS011;10808;48.010;11.326;2022-07-23T13:04:22;6.15;;;5.47;;
21297;SDS011;10808;48.010;11.326;2022-07-23T13:06:48;6.10;;;5.50;;
21297;SDS011;10808;48.010;11.326;2022-07-23T13:09:20;6.53;;;5.80;;
21297;SDS011;10808;48.010;11.326;2022-07-23T13:11:50;6.97;;;5.63;;
21297;SDS011;10808;48.010;11.326;2022-07-23T13:14:18;6.05;;;5.45;;
21297;SDS011;10808;48.010;11.326;2022-07-23T13:16:45;6.18;;;5.57;;
21297;SDS011;10808;48.010;11.326;2022-07-23T13:19:12;6.20;;;5.60;;
21297;SDS011;10808;48.010;11.326;2022-07-23T13:21:39;6.50;;;5.70;;
21297;SDS011;10808;48.010;11.326;2022-07-23T13:24:06;6.25;;;5.65;;
21297;SDS011;10808;48.010;11.326;2022-07-23T13:26:33;6.25;;;5.65;;
21297;SDS011;10808;48.010;11.326;2022-07-23T13:28:59;6.57;;;5.88;;
21297;SDS011;10808;48.010;11.326;2022-07-23T13:31:25;7.50;;;6.22;;
21297;SDS011;10808;48.010;11.326;2022-07-23T13:33:51;7.63;;;6.35;;
21297;SDS011;10808;48.010;11.326;2022-07-23T13:36:17;6.78;;;6.07;;
21297;SDS011;10808;48.010;11.326;2022-07-23T13:38:43;7.20;;;6.13;;
21297;SDS011;10808;48.010;11.326;2022-07-23T13:41:09;7.35;;;6.43;;
21297;SDS011;10808;48.010;11.326;2022-07-23T13:43:35;7.13;;;6.40;;
21297;SDS011;10808;48.010;11.326;2022-07-23T13:46:02;7.78;;;6.50;;
21297;SDS011;10808;48.010;11.326;2022-07-23T13:48:28;7.07;;;6.25;;
21297;SDS011;10808;48.010;11.326;2022-07-23T13:50:54;8.27;;;6.57;;
21297;SDS011;10808;48.010;11.326;2022-07-23T13:53:21;7.50;;;6.80;;
21297;SDS011;10808;48.010;11.326;2022-07-23T13:55:49;7.65;;;6.50;;
21297;SDS011;10808;48.010;11.326;2022-07-23T13:58:16;7.55;;;6.40;;
21297;SDS011;10808;48.010;11.326;2022-07-23T14:00:43;7.40;;;6.70;;
21297;SDS011;10808;48.010;11.326;2022-07-23T14:03:11;7.30;;;6.50;;
21297;SDS011;10808;48.010;11.326;2022-07-23T14:05:37;7.35;;;6.65;;
21297;SDS011;10808;48.010;11.326;2022-07-23T14:08:03;8.18;;;7.10;;
21297;SDS011;10808;48.010;11.326;2022-07-23T14:10:29;8.33;;;7.13;;
21297;SDS011;10808;48.010;11.326;2022-07-23T14:12:56;8.32;;;6.68;;
21297;SDS011;10808;48.010;11.326;2022-07-23T14:15:23;7.65;;;6.80;;
21297;SDS011;10808;48.010;11.326;2022-07-23T14:17:52;8.75;;;7.00;;
21297;SDS011;10808;48.010;11.326;2022-07-23T14:20:19;11.38;;;7.45;;
21297;SDS011;10808;48.010;11.326;2022-07-23T14:22:45;7.85;;;7.05;;
21297;SDS011;10808;48.010;11.326;2022-07-23T14:25:13;8.70;;;7.60;;
21297;SDS011;10808;48.010;11.326;2022-07-23T14:27:39;7.60;;;6.90;;
21297;SDS011;10808;48.010;11.326;2022-07-23T14:30:06;7.83;;;7.03;;
21297;SDS011;10808;48.010;11.326;2022-07-23T14:32:34;7.97;;;7.18;;
21297;SDS011;10808;48.010;11.326;2022-07-23T14:35:00;8.18;;;7.38;;
21297;SDS011;10808;48.010;11.326;2022-07-23T14:37:27;9.48;;;7.07;;
21297;SDS011;10808;48.010;11.326;2022-07-23T14:39:53;11.55;;;7.70;;
21297;SDS011;10808;48.010;11.326;2022-07-23T14:42:19;8.40;;;7.18;;
21297;SDS011;10808;48.010;11.326;2022-07-23T14:44:45;8.80;;;7.53;;
21297;SDS011;10808;48.010;11.326;2022-07-23T14:47:11;8.55;;;7.40;;
21297;SDS011;10808;48.010;11.326;2022-07-23T14:49:37;11.10;;;7.90;;
21297;SDS011;10808;48.010;11.326;2022-07-23T14:52:04;10.23;;;7.90;;
21297;SDS011;10808;48.010;11.326;2022-07-23T14:54:31;8.85;;;7.88;;
21297;SDS011;10808;48.010;11.326;2022-07-23T14:56:57;11.02;;;8.18;;
21297;SDS011;10808;48.010;11.326;2022-07-23T14:59:25;8.40;;;7.55;;
21297;SDS011;10808;48.010;11.326;2022-07-23T15:01:51;8.27;;;7.43;;
21297;SDS011;10808;48.010;11.326;2022-07-23T15:04:18;10.13;;;7.60;;
21297;SDS011;10808;48.010;11.326;2022-07-23T15:06:44;8.25;;;7.45;;
21297;SDS011;10808;48.010;11.326;2022-07-23T15:09:10;8.93;;;7.82;;
21297;SDS011;10808;48.010;11.326;2022-07-23T15:11:36;8.32;;;7.53;;